首页
METAR-TAF:

METAR-TAF

机场 :

Rocky Mount-Wilson Regional Airport

Rocky Mount, 北卡罗来纳州, 美国

纬度: 35-51-18N, 经度: 077-53-35W, 海拔: 49米

当前天气观测

该预报发布于28分钟前的03:53 UTC
风速8节,风向西北
温度 17°C
湿度 55%
气压 1015 hPa
能見度: 16.1公里
散云层高于5500英尺
多云层高于9000英尺

METAR: KRWI 170353Z AUTO 32008KT 10SM SCT055 BKN090 17/08 A2996 RMK AO2 SLP145 T01670078

时间: 00:21 (04:21 UTC)

预报

该预报发布于2小时和27分钟前的01:54 UTC
预报有效从17日的 02点(UTC)到 17日的 24点(UTC)
风速10节,风向西北,有时为19节阵风
能見度: 10公里
散云层高于6000英尺
从 17日的 0500点(UTC)
风速8节,风向西北
能見度: 10公里
天空无云
从 17日的 1300点(UTC)
风速12节,风向北转西北,有时为20节阵风
能見度: 10公里
天空无云
从 17日的 1900点(UTC)
风速7节,风向西北
能見度: 10公里
天空无云

TAF: KRWI 170154Z 1702/1724 32010G19KT P6SM SCT060 FM170500 31008KT P6SM SKC FM171300 33012G20KT P6SM SKC FM171900 31007KT P6SM SKC

超过4000个机场的气象观测和天气预报(METAR&TAF报告)。

可查询的气象台以黄色和红色小点在地图上表示。

将鼠标移到小点上方,可查看气象台名称。

然后点击查看天气观测和预报。

如需切换地图:点击带黑十字的绿色按钮放大地图;点击带横线的绿色按钮缩小地图;或者点击绿色箭头查看邻近地区的地图。


METAR-TAF: